createdAt,value
2022-08-28T00:00:24.519Z,76.89
2022-08-28T00:01:24.480Z,76.79
2022-08-28T00:02:24.484Z,76.79
2022-08-28T00:03:24.407Z,77.09
2022-08-28T00:04:24.398Z,76.79
2022-08-28T00:05:24.339Z,76.79
2022-08-28T00:06:24.294Z,77.39
2022-08-28T00:07:24.260Z,76.39
2022-08-28T00:08:24.220Z,76.79
2022-08-28T00:09:24.182Z,76.49
2022-08-28T00:10:24.151Z,76.79
2022-08-28T00:11:24.119Z,76.49
2022-08-28T00:12:24.071Z,76.49
2022-08-28T00:13:24.035Z,77.29
2022-08-28T00:14:24.001Z,76.73
2022-08-28T00:15:23.962Z,76.23
2022-08-28T00:16:24.015Z,76.73
2022-08-28T00:17:23.891Z,76.93
2022-08-28T00:18:23.851Z,76.53
2022-08-28T00:19:23.816Z,76.53
2022-08-28T00:20:23.775Z,77.23
2022-08-28T00:21:23.742Z,77.70
2022-08-28T00:22:23.715Z,77.53
2022-08-28T00:23:23.666Z,77.23
2022-08-28T00:24:23.639Z,78.03
2022-08-28T00:25:23.592Z,77.23
2022-08-28T00:26:23.559Z,78.03
2022-08-28T00:27:23.516Z,78.14
2022-08-28T00:28:24.588Z,77.53
2022-08-28T00:29:23.441Z,76.83
2022-08-28T00:30:23.405Z,77.94
2022-08-28T00:31:23.391Z,77.53
2022-08-28T00:32:23.336Z,77.47
2022-08-28T00:33:23.304Z,78.03
2022-08-28T00:34:33.483Z,78.64
2022-08-28T00:35:23.220Z,77.87
2022-08-28T00:36:23.183Z,77.87
2022-08-28T00:37:24.610Z,77.77
2022-08-28T00:38:23.132Z,77.57
2022-08-28T00:39:23.073Z,77.83
2022-08-28T00:40:28.917Z,77.97
2022-08-28T00:41:24.964Z,77.87
2022-08-28T00:42:22.958Z,77.61
2022-08-28T00:43:22.926Z,78.17
2022-08-28T00:44:22.897Z,78.27
2022-08-28T00:45:22.848Z,77.57
2022-08-28T00:46:22.877Z,77.97
2022-08-28T00:47:22.777Z,78.58
2022-08-28T00:48:22.739Z,77.50
2022-08-28T00:49:22.702Z,77.81
2022-08-28T00:50:22.677Z,78.81
2022-08-28T00:51:22.625Z,78.41
2022-08-28T00:52:22.589Z,78.61
2022-08-28T00:53:23.554Z,78.51
2022-08-28T00:54:22.515Z,78.61
2022-08-28T00:55:22.479Z,78.71
2022-08-28T00:56:22.451Z,78.81
2022-08-28T00:57:22.403Z,78.41
2022-08-28T00:58:22.365Z,78.51
2022-08-28T00:59:22.326Z,77.91
2022-08-28T01:00:22.294Z,77.20
2022-08-28T01:01:22.305Z,78.71
2022-08-28T01:02:22.299Z,77.40
2022-08-28T01:03:25.108Z,78.41
2022-08-28T01:04:22.152Z,77.31
2022-08-28T01:05:22.102Z,78.01
2022-08-28T01:06:22.070Z,77.50
2022-08-28T01:07:22.040Z,77.91
2022-08-28T01:08:22.902Z,77.44
2022-08-28T01:09:21.954Z,78.45
2022-08-28T01:10:21.918Z,77.95
2022-08-28T01:11:21.880Z,78.65
2022-08-28T01:12:21.844Z,78.85
2022-08-28T01:13:21.816Z,77.55
2022-08-28T01:14:21.770Z,78.45
2022-08-28T01:15:21.732Z,79.16
2022-08-28T01:16:21.772Z,78.96
2022-08-28T01:17:21.654Z,78.55
2022-08-28T01:18:21.619Z,78.96
2022-08-28T01:19:21.593Z,78.55
2022-08-28T01:20:21.546Z,78.15
2022-08-28T01:21:21.507Z,77.84
2022-08-28T01:22:21.472Z,78.65
2022-08-28T01:23:21.431Z,78.39
2022-08-28T01:24:21.407Z,78.55
2022-08-28T01:25:21.356Z,78.25
2022-08-28T01:26:21.320Z,78.25
2022-08-28T01:27:21.282Z,78.55
2022-08-28T01:28:21.247Z,78.55
2022-08-28T01:29:21.211Z,78.59
2022-08-28T01:30:21.184Z,78.85
2022-08-28T01:31:21.196Z,78.05
2022-08-28T01:32:21.098Z,77.95
2022-08-28T01:33:28.257Z,79.05
2022-08-28T01:34:21.023Z,78.85
2022-08-28T01:35:20.984Z,78.69
2022-08-28T01:36:20.947Z,78.75
2022-08-28T01:37:20.920Z,78.65
2022-08-28T01:38:22.014Z,77.78
2022-08-28T01:39:20.838Z,78.49
2022-08-28T01:40:20.845Z,78.35
2022-08-28T01:41:20.762Z,78.19
2022-08-28T01:42:20.723Z,78.08
2022-08-28T01:43:20.696Z,78.39
2022-08-28T01:44:20.655Z,78.59
2022-08-28T01:45:20.609Z,78.99
2022-08-28T01:46:20.634Z,78.39
2022-08-28T01:47:20.534Z,78.39
2022-08-28T01:48:20.500Z,78.28
2022-08-28T01:49:20.469Z,78.69
2022-08-28T01:50:20.431Z,78.72
2022-08-28T01:51:24.478Z,78.92
2022-08-28T01:52:26.300Z,79.09
2022-08-28T01:53:20.308Z,78.83
2022-08-28T01:54:20.273Z,79.60
2022-08-28T01:55:21.511Z,79.39
2022-08-28T01:56:20.196Z,79.33
2022-08-28T01:57:20.170Z,79.53
2022-08-28T01:58:20.124Z,79.43
2022-08-28T01:59:20.090Z,79.93
2022-08-28T02:00:20.048Z,79.93
2022-08-28T02:01:20.051Z,80.04
2022-08-28T02:02:19.974Z,80.74
2022-08-28T02:03:19.948Z,80.33
2022-08-28T02:04:19.953Z,80.54
2022-08-28T02:05:19.861Z,80.74
2022-08-28T02:06:19.826Z,79.73
2022-08-28T02:07:19.783Z,79.83
2022-08-28T02:08:19.746Z,80.54
2022-08-28T02:09:19.722Z,79.73
2022-08-28T02:10:19.678Z,80.84
2022-08-28T02:11:19.633Z,79.83
2022-08-28T02:12:19.599Z,80.94
2022-08-28T02:13:19.559Z,80.38
2022-08-28T02:14:19.526Z,80.68
2022-08-28T02:15:19.498Z,80.68
2022-08-28T02:16:19.502Z,80.88
2022-08-28T02:17:19.412Z,80.27
2022-08-28T02:18:19.374Z,80.27
2022-08-28T02:19:19.336Z,80.27
2022-08-28T02:20:19.294Z,80.78
2022-08-28T02:21:19.270Z,81.08
2022-08-28T02:22:19.222Z,80.98
2022-08-28T02:23:19.183Z,81.48
2022-08-28T02:24:19.143Z,81.28
2022-08-28T02:25:19.107Z,81.59
2022-08-28T02:26:19.083Z,81.38
2022-08-28T02:27:19.035Z,81.38
2022-08-28T02:28:19.004Z,81.38
2022-08-28T02:29:18.958Z,80.92
2022-08-28T02:30:18.920Z,81.12
2022-08-28T02:31:18.914Z,81.52
2022-08-28T02:32:18.842Z,81.02
2022-08-28T02:33:18.811Z,81.93
2022-08-28T02:34:18.782Z,81.62
2022-08-28T02:35:18.734Z,82.03
2022-08-28T02:36:18.692Z,81.22
2022-08-28T02:37:18.651Z,81.12
2022-08-28T02:38:18.897Z,81.32
2022-08-28T02:39:18.583Z,82.23
2022-08-28T02:40:18.570Z,82.23
2022-08-28T02:41:18.507Z,81.42
2022-08-28T02:42:18.465Z,81.22
2022-08-28T02:43:18.427Z,82.33
2022-08-28T02:44:18.391Z,82.13
2022-08-28T02:45:18.352Z,81.82
2022-08-28T02:46:18.363Z,82.53
2022-08-28T02:47:18.280Z,83.24
2022-08-28T02:48:18.489Z,82.64
2022-08-28T02:49:18.202Z,82.84
2022-08-28T02:50:18.163Z,82.57
2022-08-28T02:51:18.133Z,82.93
2022-08-28T02:52:18.097Z,81.42
2022-08-28T02:53:18.050Z,82.93
2022-08-28T02:54:18.551Z,81.93
2022-08-28T02:55:17.979Z,82.93
2022-08-28T02:56:17.936Z,82.98
2022-08-28T02:57:17.901Z,81.82
2022-08-28T02:58:17.873Z,82.43
2022-08-28T02:59:17.825Z,82.07
2022-08-28T03:00:17.785Z,83.34
2022-08-28T03:01:17.794Z,82.37
2022-08-28T03:02:17.743Z,82.87
2022-08-28T03:03:17.673Z,82.13
2022-08-28T03:04:17.648Z,82.87
2022-08-28T03:05:17.599Z,83.07
2022-08-28T03:06:17.560Z,83.18
2022-08-28T03:07:17.524Z,82.27
2022-08-28T03:08:17.486Z,82.37
2022-08-28T03:09:17.444Z,82.27
2022-08-28T03:10:17.418Z,82.87
2022-08-28T03:11:17.374Z,82.67
2022-08-28T03:12:17.331Z,82.27
2022-08-28T03:13:26.430Z,83.48
2022-08-28T03:14:17.261Z,83.48
2022-08-28T03:15:17.236Z,83.48
2022-08-28T03:16:17.193Z,82.71
2022-08-28T03:17:17.144Z,82.27
2022-08-28T03:18:17.109Z,82.47
2022-08-28T03:19:17.069Z,82.37
2022-08-28T03:20:17.028Z,83.07
2022-08-28T03:21:17.010Z,82.37
2022-08-28T03:22:16.956Z,82.37
2022-08-28T03:23:16.916Z,82.27
2022-08-28T03:24:16.878Z,83.18
2022-08-28T03:25:16.842Z,82.61
2022-08-28T03:26:16.819Z,83.48
2022-08-28T03:27:16.766Z,82.87
2022-08-28T03:28:16.727Z,84.03
2022-08-28T03:29:16.689Z,82.61
2022-08-28T03:30:16.650Z,83.78
2022-08-28T03:31:16.677Z,83.58
2022-08-28T03:32:16.585Z,82.81
2022-08-28T03:33:16.539Z,83.82
2022-08-28T03:34:16.500Z,83.22
2022-08-28T03:35:16.462Z,83.32
2022-08-28T03:36:16.423Z,83.62
2022-08-28T03:37:16.389Z,83.82
2022-08-28T03:38:16.361Z,83.62
2022-08-28T03:39:16.309Z,83.01
2022-08-28T03:40:16.348Z,83.86
2022-08-28T03:41:16.237Z,83.72
2022-08-28T03:42:16.198Z,83.76
2022-08-28T03:43:16.161Z,84.67
2022-08-28T03:44:16.136Z,84.73
2022-08-28T03:45:16.085Z,83.66
2022-08-28T03:46:16.162Z,84.67
2022-08-28T03:47:16.010Z,84.57
2022-08-28T03:48:15.970Z,84.67
2022-08-28T03:49:15.934Z,84.77
2022-08-28T03:50:15.920Z,85.08
2022-08-28T03:51:15.859Z,84.57
2022-08-28T03:52:15.821Z,84.57
2022-08-28T03:53:15.781Z,85.38
2022-08-28T03:54:15.741Z,85.02
2022-08-28T03:55:15.707Z,85.58
2022-08-28T03:56:15.676Z,85.28
2022-08-28T03:57:15.629Z,85.22
2022-08-28T03:58:18.932Z,85.31
2022-08-28T03:59:15.552Z,85.82
2022-08-28T04:00:15.515Z,85.42
2022-08-28T04:01:15.580Z,85.58
2022-08-28T04:02:15.438Z,85.82
2022-08-28T04:03:15.442Z,86.02
2022-08-28T04:04:15.376Z,85.22
2022-08-28T04:05:15.324Z,86.13
2022-08-28T04:06:15.284Z,85.22
2022-08-28T04:07:15.247Z,85.62
2022-08-28T04:08:15.208Z,86.02
2022-08-28T04:09:15.170Z,85.82
2022-08-28T04:10:15.145Z,86.13
2022-08-28T04:11:15.099Z,86.13
2022-08-28T04:12:15.056Z,86.33
2022-08-28T04:13:15.022Z,86.93
2022-08-28T04:14:14.981Z,86.43
2022-08-28T04:15:14.943Z,86.02
2022-08-28T04:16:14.957Z,86.13
2022-08-28T04:17:14.867Z,85.11
2022-08-28T04:18:15.033Z,85.11
2022-08-28T04:19:14.791Z,85.52
2022-08-28T04:20:14.752Z,85.93
2022-08-28T04:21:14.719Z,86.02
2022-08-28T04:22:14.693Z,86.13
2022-08-28T04:23:14.639Z,86.47
2022-08-28T04:24:14.598Z,86.73
2022-08-28T04:25:14.563Z,86.63
2022-08-28T04:26:14.528Z,86.43
2022-08-28T04:27:14.488Z,85.93
2022-08-28T04:28:14.612Z,86.43
2022-08-28T04:29:14.412Z,87.13
2022-08-28T04:30:14.372Z,86.77
2022-08-28T04:31:14.384Z,86.57
2022-08-28T04:32:14.333Z,85.86
2022-08-28T04:33:14.257Z,86.73
2022-08-28T04:34:14.232Z,86.87
2022-08-28T04:35:14.181Z,86.87
2022-08-28T04:36:14.141Z,87.34
2022-08-28T04:37:14.105Z,86.93
2022-08-28T04:38:14.200Z,86.98
2022-08-28T04:39:14.028Z,87.04
2022-08-28T04:40:14.056Z,86.77
2022-08-28T04:41:13.953Z,87.28
2022-08-28T04:42:13.912Z,87.28
2022-08-28T04:43:13.876Z,86.57
2022-08-28T04:44:13.835Z,86.98
2022-08-28T04:45:13.797Z,86.98
2022-08-28T04:46:13.809Z,86.98
2022-08-28T04:47:13.724Z,87.38
2022-08-28T04:48:13.981Z,87.38
2022-08-28T04:49:13.645Z,86.47
2022-08-28T04:50:13.607Z,86.98
2022-08-28T04:51:13.584Z,87.99
2022-08-28T04:52:13.533Z,87.18
2022-08-28T04:53:13.496Z,87.18
2022-08-28T04:54:13.455Z,87.28
2022-08-28T04:55:13.420Z,87.18
2022-08-28T04:56:23.215Z,88.04
2022-08-28T04:57:13.343Z,87.74
2022-08-28T04:58:13.375Z,87.04
2022-08-28T04:59:13.275Z,87.95
2022-08-28T05:00:13.251Z,86.63
2022-08-28T05:01:13.217Z,87.64
2022-08-28T05:02:13.260Z,87.79
2022-08-28T05:03:13.113Z,88.15
2022-08-28T05:04:13.073Z,87.34
2022-08-28T05:05:13.035Z,86.83
2022-08-28T05:06:13.008Z,87.24
2022-08-28T05:07:12.959Z,86.33
2022-08-28T05:08:13.034Z,86.83
2022-08-28T05:09:12.884Z,86.22
2022-08-28T05:10:12.852Z,87.04
2022-08-28T05:11:12.806Z,86.83
2022-08-28T05:12:12.776Z,86.33
2022-08-28T05:13:12.731Z,86.22
2022-08-28T05:14:15.899Z,85.58
2022-08-28T05:15:12.655Z,86.13
2022-08-28T05:16:12.655Z,86.22
2022-08-28T05:17:12.617Z,85.99
2022-08-28T05:18:12.676Z,86.93
2022-08-28T05:19:12.524Z,87.04
2022-08-28T05:20:12.462Z,85.68
2022-08-28T05:21:14.473Z,86.19
2022-08-28T05:22:12.401Z,85.48
2022-08-28T05:23:12.357Z,86.02
2022-08-28T05:24:12.310Z,86.29
2022-08-28T05:25:12.276Z,85.68
2022-08-28T05:26:12.238Z,86.59
2022-08-28T05:27:12.200Z,86.08
2022-08-28T05:28:12.489Z,86.39
2022-08-28T05:29:12.121Z,86.19
2022-08-28T05:30:12.083Z,85.68
2022-08-28T05:31:12.082Z,84.77
2022-08-28T05:32:12.008Z,85.78
2022-08-28T05:33:11.970Z,85.48
2022-08-28T05:34:11.944Z,85.34
2022-08-28T05:35:11.895Z,84.93
2022-08-28T05:36:11.855Z,85.34
2022-08-28T05:37:13.050Z,84.23
2022-08-28T05:38:11.996Z,84.33
2022-08-28T05:39:11.761Z,84.39
2022-08-28T05:40:11.757Z,84.49
2022-08-28T05:41:11.669Z,84.09
2022-08-28T05:42:11.639Z,83.54
2022-08-28T05:43:11.605Z,83.64
2022-08-28T05:44:11.569Z,83.10
2022-08-28T05:45:11.519Z,83.34
2022-08-28T05:46:11.583Z,83.40
2022-08-28T05:47:11.481Z,82.50
2022-08-28T05:48:11.538Z,83.00
2022-08-28T05:49:11.363Z,82.19
2022-08-28T05:50:11.340Z,81.55
2022-08-28T05:51:11.295Z,81.65
2022-08-28T05:52:11.265Z,81.65
2022-08-28T05:53:11.215Z,81.68
2022-08-28T05:54:11.175Z,81.18
2022-08-28T05:55:11.139Z,82.19
2022-08-28T05:56:11.101Z,81.24
2022-08-28T05:57:11.064Z,80.64
2022-08-28T05:58:11.039Z,80.70
2022-08-28T05:59:10.990Z,81.10
2022-08-28T06:00:10.956Z,80.60
2022-08-28T06:01:10.917Z,80.30
2022-08-28T06:02:10.954Z,80.57
2022-08-28T06:03:10.851Z,80.46
2022-08-28T06:04:10.894Z,80.46
2022-08-28T06:05:13.076Z,79.02
2022-08-28T06:06:10.727Z,78.44
2022-08-28T06:07:10.691Z,76.25
2022-08-28T06:08:10.657Z,75.18
2022-08-28T06:09:10.615Z,73.27
2022-08-28T06:10:10.940Z,72.63
2022-08-28T06:11:10.544Z,74.15
2022-08-28T06:12:10.503Z,75.38
2022-08-28T06:13:10.473Z,75.38
2022-08-28T06:14:10.434Z,75.55
2022-08-28T06:15:10.401Z,75.85
2022-08-28T06:16:10.387Z,75.45
2022-08-28T06:17:10.322Z,74.68
2022-08-28T06:18:10.284Z,73.87
2022-08-28T06:19:10.249Z,74.51
2022-08-28T06:20:10.210Z,74.95
2022-08-28T06:21:10.178Z,75.49
2022-08-28T06:22:10.147Z,75.38
2022-08-28T06:23:10.102Z,75.79
2022-08-28T06:24:10.065Z,76.97
2022-08-28T06:25:10.027Z,76.63
2022-08-28T06:26:09.991Z,77.13
2022-08-28T06:27:09.955Z,76.63
2022-08-28T06:28:09.927Z,76.63
2022-08-28T06:29:09.892Z,77.27
2022-08-28T06:30:09.845Z,78.27
2022-08-28T06:31:24.335Z,78.47
2022-08-28T06:32:09.814Z,77.57
2022-08-28T06:33:09.737Z,76.63
2022-08-28T06:34:09.706Z,77.23
2022-08-28T06:35:09.678Z,76.83
2022-08-28T06:36:09.625Z,76.43
2022-08-28T06:37:09.589Z,76.97
2022-08-28T06:38:09.579Z,76.93
2022-08-28T06:39:09.520Z,76.49
2022-08-28T06:40:09.520Z,75.92
2022-08-28T06:41:09.455Z,75.42
2022-08-28T06:42:09.417Z,73.77
2022-08-28T06:43:09.373Z,73.13
2022-08-28T06:44:09.336Z,71.83
2022-08-28T06:45:09.299Z,71.43
2022-08-28T06:46:09.318Z,70.62
2022-08-28T06:47:09.259Z,71.12
2022-08-28T06:48:09.223Z,71.43
2022-08-28T06:49:09.154Z,71.26
2022-08-28T06:50:09.118Z,71.46
2022-08-28T06:51:09.084Z,72.80
2022-08-28T06:52:09.046Z,72.70
2022-08-28T06:53:09.021Z,72.70
2022-08-28T06:54:08.978Z,73.07
2022-08-28T06:55:08.937Z,71.43
2022-08-28T06:56:08.901Z,70.19
2022-08-28T06:57:08.869Z,71.00
2022-08-28T06:58:08.883Z,71.50
2022-08-28T06:59:08.805Z,73.13
2022-08-28T07:00:08.761Z,72.80
2022-08-28T07:01:08.774Z,72.70
2022-08-28T07:02:08.802Z,72.90
2022-08-28T07:03:08.660Z,71.96
2022-08-28T07:04:08.616Z,71.16
2022-08-28T07:05:08.590Z,72.77
2022-08-28T07:06:08.547Z,72.06
2022-08-28T07:07:08.505Z,70.93
2022-08-28T07:08:08.543Z,72.43
2022-08-28T07:09:08.438Z,71.53
2022-08-28T07:10:08.401Z,72.00
2022-08-28T07:11:08.379Z,71.12
2022-08-28T07:12:08.329Z,71.90
2022-08-28T07:13:08.292Z,72.33
2022-08-28T07:14:08.257Z,69.26
2022-08-28T07:15:08.221Z,67.72
2022-08-28T07:16:08.205Z,66.39
2022-08-28T07:17:08.159Z,64.90
2022-08-28T07:18:08.153Z,64.51
2022-08-28T07:19:08.093Z,64.07
2022-08-28T07:20:08.049Z,62.26
2022-08-28T07:21:12.092Z,62.82
2022-08-28T07:22:07.976Z,62.10
2022-08-28T07:23:07.937Z,61.34
2022-08-28T07:24:07.902Z,60.52
2022-08-28T07:25:07.880Z,60.39
2022-08-28T07:26:07.836Z,58.80
2022-08-28T07:27:07.801Z,58.73
2022-08-28T07:28:07.766Z,59.62
2022-08-28T07:29:10.912Z,58.47
2022-08-28T07:30:07.697Z,58.04
2022-08-28T07:31:07.732Z,56.26
2022-08-28T07:32:07.628Z,57.35
2022-08-28T07:33:07.595Z,57.41
2022-08-28T07:34:07.559Z,58.84
2022-08-28T07:35:07.527Z,57.08
2022-08-28T07:36:07.491Z,56.49
2022-08-28T07:37:08.142Z,58.80
2022-08-28T07:38:07.425Z,57.28
2022-08-28T07:39:07.391Z,56.91
2022-08-28T07:40:07.432Z,58.78
2022-08-28T07:41:07.351Z,59.92
2022-08-28T07:42:07.294Z,58.78
2022-08-28T07:43:07.272Z,58.58
2022-08-28T07:44:07.227Z,59.14
2022-08-28T07:45:07.198Z,62.31
2022-08-28T07:46:07.249Z,63.14
2022-08-28T07:47:08.873Z,63.27
2022-08-28T07:48:11.146Z,62.08
2022-08-28T07:49:07.069Z,61.19
2022-08-28T07:50:07.028Z,59.96
2022-08-28T07:51:06.996Z,60.19
2022-08-28T07:52:06.961Z,61.49
2022-08-28T07:53:06.925Z,60.03
2022-08-28T07:54:06.897Z,59.68
2022-08-28T07:55:06.876Z,59.38
2022-08-28T07:56:06.829Z,58.13
2022-08-28T07:57:06.797Z,58.41
2022-08-28T07:58:06.764Z,60.33
2022-08-28T07:59:06.728Z,60.21
2022-08-28T08:00:06.696Z,60.76
2022-08-28T08:01:06.703Z,60.24
2022-08-28T08:02:06.642Z,59.01
2022-08-28T08:03:06.638Z,60.24
2022-08-28T08:04:06.563Z,59.28
2022-08-28T08:05:06.588Z,57.31
2022-08-28T08:06:06.497Z,56.38
2022-08-28T08:07:06.467Z,57.28
2022-08-28T08:08:06.487Z,56.13
2022-08-28T08:09:06.400Z,54.70
2022-08-28T08:10:06.366Z,57.11
2022-08-28T08:11:06.332Z,55.96
2022-08-28T08:12:06.300Z,54.75
2022-08-28T08:13:06.267Z,54.13
2022-08-28T08:14:06.248Z,53.66
2022-08-28T08:15:06.200Z,55.04
2022-08-28T08:16:06.235Z,53.31
2022-08-28T08:17:07.466Z,52.29
2022-08-28T08:18:06.181Z,53.01
2022-08-28T08:19:06.084Z,53.66
2022-08-28T08:20:06.047Z,55.64
2022-08-28T08:21:06.011Z,54.05
2022-08-28T08:22:05.983Z,53.41
2022-08-28T08:23:05.944Z,53.28
2022-08-28T08:24:05.921Z,54.42
2022-08-28T08:25:05.897Z,54.97
2022-08-28T08:26:05.848Z,55.85
2022-08-28T08:27:05.816Z,58.03
2022-08-28T08:28:05.802Z,57.31
2022-08-28T08:29:05.756Z,57.62
2022-08-28T08:30:05.727Z,58.70
2022-08-28T08:31:05.771Z,60.22
2022-08-28T08:32:06.339Z,60.12
2022-08-28T08:33:05.628Z,60.96
2022-08-28T08:34:05.591Z,60.02
2022-08-28T08:35:05.559Z,61.54
2022-08-28T08:36:05.538Z,64.23
2022-08-28T08:37:05.570Z,61.55
2022-08-28T08:38:05.471Z,60.19
2022-08-28T08:39:06.576Z,60.43
2022-08-28T08:40:10.051Z,58.26
2022-08-28T08:41:05.371Z,56.99
2022-08-28T08:42:05.329Z,58.01
2022-08-28T08:43:05.309Z,58.06
2022-08-28T08:44:05.264Z,58.18
2022-08-28T08:45:05.231Z,57.29
2022-08-28T08:46:05.247Z,56.96
2022-08-28T08:47:05.165Z,55.02
2022-08-28T08:48:05.261Z,56.24
2022-08-28T08:49:05.109Z,57.49
2022-08-28T08:50:05.069Z,59.62
2022-08-28T08:51:05.039Z,56.12
2022-08-28T08:52:05.016Z,55.77
2022-08-28T08:53:04.967Z,58.74
2022-08-28T08:54:04.936Z,59.17
2022-08-28T08:55:04.931Z,60.24
2022-08-28T08:56:04.872Z,57.59
2022-08-28T08:57:04.838Z,57.45
2022-08-28T08:58:04.864Z,58.34
2022-08-28T08:59:04.777Z,58.83
2022-08-28T09:00:04.739Z,58.50
2022-08-28T09:01:04.773Z,57.87
2022-08-28T09:02:04.673Z,59.34
2022-08-28T09:03:04.737Z,58.84
2022-08-28T09:04:04.608Z,57.73
2022-08-28T09:05:04.578Z,57.51
2022-08-28T09:06:04.545Z,56.09
2022-08-28T09:07:04.524Z,55.27
2022-08-28T09:08:04.480Z,55.41
2022-08-28T09:09:04.454Z,52.59
2022-08-28T09:10:04.420Z,53.78
2022-08-28T09:11:04.385Z,51.32
2022-08-28T09:12:04.353Z,53.96
2022-08-28T09:13:04.349Z,56.52
2022-08-28T09:14:04.293Z,58.87
2022-08-28T09:15:04.258Z,58.47
2022-08-28T09:16:04.267Z,58.67
2022-08-28T09:17:04.194Z,57.42
2022-08-28T09:18:04.161Z,56.10
2022-08-28T09:19:04.141Z,57.83
2022-08-28T09:20:04.097Z,56.09
2022-08-28T09:21:04.072Z,54.77
2022-08-28T09:22:04.041Z,53.26
2022-08-28T09:23:12.352Z,52.81
2022-08-28T09:24:05.836Z,52.84
2022-08-28T09:25:03.952Z,55.36
2022-08-28T09:26:03.909Z,54.57
2022-08-28T09:27:03.882Z,56.23
2022-08-28T09:28:03.852Z,53.50
2022-08-28T09:29:03.825Z,54.47
2022-08-28T09:30:07.718Z,51.47
2022-08-28T09:31:03.909Z,52.36
2022-08-28T09:32:03.722Z,53.16
2022-08-28T09:33:03.687Z,53.06
2022-08-28T09:34:03.661Z,53.01
2022-08-28T09:35:03.645Z,53.73
2022-08-28T09:36:03.596Z,53.85
2022-08-28T09:37:03.568Z,54.55
2022-08-28T09:38:03.538Z,57.94
2022-08-28T09:39:03.506Z,58.17
2022-08-28T09:40:03.558Z,57.53
2022-08-28T09:41:03.456Z,59.52
2022-08-28T09:42:03.416Z,58.27
2022-08-28T09:43:03.388Z,58.84
2022-08-28T09:44:03.353Z,57.86
2022-08-28T09:45:09.241Z,56.24
2022-08-28T09:46:03.337Z,56.49
2022-08-28T09:47:03.271Z,56.04
2022-08-28T09:48:03.226Z,54.50
2022-08-28T09:49:03.201Z,54.70
2022-08-28T09:50:03.186Z,55.82
2022-08-28T09:51:03.138Z,55.07
2022-08-28T09:52:03.117Z,52.86
2022-08-28T09:53:03.102Z,53.85
2022-08-28T09:54:03.046Z,52.66
2022-08-28T09:55:03.015Z,52.69
2022-08-28T09:56:02.985Z,53.58
2022-08-28T09:57:02.951Z,54.05
2022-08-28T09:58:02.932Z,53.45
2022-08-28T09:59:02.902Z,52.56
2022-08-28T10:00:02.859Z,53.36
2022-08-28T10:01:02.836Z,53.74
2022-08-28T10:02:02.836Z,57.05
2022-08-28T10:03:07.402Z,58.31
2022-08-28T10:04:02.775Z,55.18
2022-08-28T10:05:02.756Z,54.68
2022-08-28T10:06:02.692Z,53.86
2022-08-28T10:07:02.643Z,52.91
2022-08-28T10:08:02.617Z,53.88
2022-08-28T10:09:02.603Z,52.71
2022-08-28T10:10:02.556Z,49.57
2022-08-28T10:11:02.521Z,50.60
2022-08-28T10:12:02.489Z,51.15
2022-08-28T10:13:02.460Z,52.72
2022-08-28T10:14:02.429Z,53.49
2022-08-28T10:15:02.417Z,56.51
2022-08-28T10:16:02.417Z,57.02
2022-08-28T10:17:02.335Z,53.88
2022-08-28T10:18:02.304Z,53.58
2022-08-28T10:19:02.275Z,54.83
2022-08-28T10:20:02.246Z,56.07
2022-08-28T10:21:02.227Z,53.96
2022-08-28T10:22:02.181Z,54.33
2022-08-28T10:23:02.147Z,52.42
2022-08-28T10:24:02.121Z,53.73
2022-08-28T10:25:02.094Z,52.81
2022-08-28T10:26:02.057Z,54.11
2022-08-28T10:27:02.024Z,53.56
2022-08-28T10:28:02.015Z,53.23
2022-08-28T10:29:01.963Z,53.58
2022-08-28T10:30:06.728Z,52.73
2022-08-28T10:31:01.967Z,51.12
2022-08-28T10:32:01.870Z,50.41
2022-08-28T10:33:01.836Z,51.00
2022-08-28T10:34:01.806Z,51.12
2022-08-28T10:35:01.777Z,51.28
2022-08-28T10:36:01.743Z,51.23
2022-08-28T10:37:01.728Z,52.17
2022-08-28T10:38:01.680Z,52.14
2022-08-28T10:39:01.651Z,52.12
2022-08-28T10:40:01.641Z,52.22
2022-08-28T10:41:01.585Z,52.94
2022-08-28T10:42:01.557Z,51.79
2022-08-28T10:43:01.537Z,52.72
2022-08-28T10:44:01.491Z,52.67
2022-08-28T10:45:01.461Z,53.49
2022-08-28T10:46:01.452Z,53.44
2022-08-28T10:47:01.398Z,52.44
2022-08-28T10:48:01.370Z,53.33
2022-08-28T10:49:01.343Z,51.47
2022-08-28T10:50:01.305Z,53.19
2022-08-28T10:51:01.271Z,52.76
2022-08-28T10:52:01.241Z,51.84
2022-08-28T10:53:01.209Z,51.30
2022-08-28T10:54:01.179Z,53.76
2022-08-28T10:55:01.159Z,55.43
2022-08-28T10:56:10.392Z,53.58
2022-08-28T10:57:01.088Z,52.37
2022-08-28T10:58:01.052Z,53.26
2022-08-28T10:59:01.021Z,52.22
2022-08-28T11:00:00.988Z,51.60
2022-08-28T11:01:01.045Z,50.81
2022-08-28T11:02:00.978Z,50.78
2022-08-28T11:03:00.965Z,50.06
2022-08-28T11:04:00.864Z,50.85
2022-08-28T11:05:00.837Z,50.06
2022-08-28T11:06:00.813Z,49.76
2022-08-28T11:07:00.817Z,52.14
2022-08-28T11:08:00.826Z,49.88
2022-08-28T11:09:00.736Z,50.85
2022-08-28T11:10:00.724Z,49.59
2022-08-28T11:11:00.656Z,50.85
2022-08-28T11:12:02.285Z,53.63
2022-08-28T11:13:00.575Z,52.81
2022-08-28T11:14:00.544Z,51.42
2022-08-28T11:15:00.513Z,51.30
2022-08-28T11:16:00.482Z,53.06
2022-08-28T11:17:00.526Z,52.14
2022-08-28T11:18:00.415Z,50.93
2022-08-28T11:19:00.386Z,50.63
2022-08-28T11:20:00.353Z,49.37
2022-08-28T11:21:00.320Z,51.20
2022-08-28T11:22:00.305Z,51.72
2022-08-28T11:23:00.260Z,51.62
2022-08-28T11:24:00.234Z,52.29
2022-08-28T11:25:04.285Z,52.17
2022-08-28T11:26:00.159Z,50.73
2022-08-28T11:27:00.130Z,52.69
2022-08-28T11:28:00.113Z,52.19
2022-08-28T11:29:00.077Z,50.60
2022-08-28T11:30:00.034Z,52.86
2022-08-28T11:31:00.076Z,51.35
2022-08-28T11:31:59.973Z,52.61
2022-08-28T11:32:59.939Z,51.05
2022-08-28T11:33:59.906Z,50.65
2022-08-28T11:34:59.889Z,50.26
2022-08-28T11:35:59.840Z,51.42
2022-08-28T11:36:59.813Z,51.72
2022-08-28T11:37:59.780Z,49.94
2022-08-28T11:38:59.747Z,50.06
2022-08-28T11:39:59.825Z,50.38
2022-08-28T11:40:59.761Z,52.29
2022-08-28T11:41:59.656Z,51.37
2022-08-28T11:42:59.621Z,51.37
2022-08-28T11:43:59.588Z,50.85
2022-08-28T11:44:59.559Z,52.64
2022-08-28T11:45:59.553Z,49.46
2022-08-28T11:46:59.497Z,51.23
2022-08-28T11:47:59.466Z,50.71
2022-08-28T11:48:59.433Z,49.34
2022-08-28T11:49:59.402Z,51.50
2022-08-28T11:50:59.493Z,51.50
2022-08-28T11:51:59.351Z,50.81
2022-08-28T11:52:59.315Z,51.42
2022-08-28T11:53:59.279Z,52.29
2022-08-28T11:54:59.252Z,53.44
2022-08-28T11:55:59.220Z,53.66
2022-08-28T11:56:59.191Z,53.66
2022-08-28T11:58:20.197Z,55.23
2022-08-28T11:58:59.234Z,54.08
2022-08-28T11:59:59.094Z,52.96
2022-08-28T12:00:59.070Z,52.64
2022-08-28T12:01:59.120Z,51.47
2022-08-28T12:02:59.951Z,51.57
2022-08-28T12:03:59.059Z,51.67
2022-08-28T12:04:58.952Z,52.47
2022-08-28T12:05:58.910Z,50.98
2022-08-28T12:06:58.890Z,51.72
2022-08-28T12:07:58.849Z,52.54
2022-08-28T12:08:58.817Z,53.71
2022-08-28T12:10:02.912Z,53.86
2022-08-28T12:10:58.773Z,51.54
2022-08-28T12:11:58.726Z,51.52
2022-08-28T12:12:58.693Z,51.00
2022-08-28T12:13:58.675Z,49.91
2022-08-28T12:14:58.645Z,51.47
2022-08-28T12:15:58.652Z,49.79
2022-08-28T12:16:58.582Z,51.35
2022-08-28T12:17:58.545Z,51.45
2022-08-28T12:18:58.515Z,49.59
2022-08-28T12:19:58.508Z,50.40
2022-08-28T12:20:58.470Z,50.83
2022-08-28T12:21:58.577Z,51.28
2022-08-28T12:22:58.389Z,52.72
2022-08-28T12:23:59.227Z,52.72
2022-08-28T12:24:58.337Z,52.81
2022-08-28T12:25:58.297Z,52.59
2022-08-28T12:26:58.271Z,51.67
2022-08-28T12:27:58.247Z,51.10
2022-08-28T12:28:58.215Z,51.60
2022-08-28T12:29:58.970Z,51.70
2022-08-28T12:30:58.304Z,51.79
2022-08-28T12:31:58.155Z,52.96
2022-08-28T12:32:58.082Z,52.09
2022-08-28T12:33:58.065Z,51.60
2022-08-28T12:34:58.023Z,52.47
2022-08-28T12:35:58.000Z,53.46
2022-08-28T12:36:57.961Z,52.47
2022-08-28T12:37:57.952Z,51.25
2022-08-28T12:38:57.904Z,52.54
2022-08-28T12:39:57.913Z,51.25
2022-08-28T12:40:57.837Z,51.07
2022-08-28T12:41:57.817Z,50.68
2022-08-28T12:42:57.816Z,51.60
2022-08-28T12:43:57.822Z,52.32
2022-08-28T12:44:57.736Z,51.32
2022-08-28T12:45:58.394Z,52.51
2022-08-28T12:46:57.659Z,51.62
2022-08-28T12:47:57.628Z,52.89
2022-08-28T12:48:57.614Z,51.37
2022-08-28T12:49:57.600Z,52.17
2022-08-28T12:50:57.555Z,51.67
2022-08-28T12:51:57.535Z,51.97